sensor_id;sensor_type;location;lat;lon;timestamp;P1;durP1;ratioP1;P2;durP2;ratioP2
44139;SDS011;29803;51.048;4.686;2023-08-20T00:01:59;11.45;;;3.42;;
44139;SDS011;29803;51.048;4.686;2023-08-20T00:04:31;11.07;;;3.50;;
44139;SDS011;29803;51.048;4.686;2023-08-20T00:07:05;9.23;;;3.75;;
44139;SDS011;29803;51.048;4.686;2023-08-20T00:09:37;12.60;;;3.13;;
44139;SDS011;29803;51.048;4.686;2023-08-20T00:12:08;11.43;;;3.40;;
44139;SDS011;29803;51.048;4.686;2023-08-20T00:17:35;13.65;;;2.78;;
44139;SDS011;29803;51.048;4.686;2023-08-20T00:20:08;14.05;;;3.25;;
44139;SDS011;29803;51.048;4.686;2023-08-20T00:22:42;12.27;;;3.67;;
44139;SDS011;29803;51.048;4.686;2023-08-20T00:25:15;18.42;;;3.72;;
44139;SDS011;29803;51.048;4.686;2023-08-20T00:27:47;9.45;;;2.85;;
44139;SDS011;29803;51.048;4.686;2023-08-20T00:30:18;13.38;;;3.63;;
44139;SDS011;29803;51.048;4.686;2023-08-20T00:32:48;11.80;;;3.08;;
44139;SDS011;29803;51.048;4.686;2023-08-20T00:35:19;11.35;;;2.70;;
44139;SDS011;29803;51.048;4.686;2023-08-20T00:37:50;15.00;;;3.90;;
44139;SDS011;29803;51.048;4.686;2023-08-20T00:40:20;9.82;;;3.08;;
44139;SDS011;29803;51.048;4.686;2023-08-20T00:42:51;12.75;;;3.47;;
44139;SDS011;29803;51.048;4.686;2023-08-20T00:45:22;19.05;;;3.75;;
44139;SDS011;29803;51.048;4.686;2023-08-20T00:47:53;12.48;;;3.13;;
44139;SDS011;29803;51.048;4.686;2023-08-20T00:50:23;8.90;;;2.70;;
44139;SDS011;29803;51.048;4.686;2023-08-20T00:52:54;14.52;;;4.40;;
44139;SDS011;29803;51.048;4.686;2023-08-20T00:55:25;13.57;;;3.22;;
44139;SDS011;29803;51.048;4.686;2023-08-20T00:57:55;7.00;;;2.85;;
44139;SDS011;29803;51.048;4.686;2023-08-20T01:00:26;6.50;;;2.92;;
44139;SDS011;29803;51.048;4.686;2023-08-20T01:02:56;15.00;;;3.83;;
44139;SDS011;29803;51.048;4.686;2023-08-20T01:05:29;12.98;;;3.45;;
44139;SDS011;29803;51.048;4.686;2023-08-20T01:11:10;19.20;;;3.78;;
44139;SDS011;29803;51.048;4.686;2023-08-20T01:14:14;13.63;;;3.55;;
44139;SDS011;29803;51.048;4.686;2023-08-20T01:16:45;13.38;;;3.75;;
44139;SDS011;29803;51.048;4.686;2023-08-20T01:19:17;10.88;;;3.80;;
44139;SDS011;29803;51.048;4.686;2023-08-20T01:31:02;9.30;;;3.15;;
44139;SDS011;29803;51.048;4.686;2023-08-20T01:33:34;14.50;;;3.80;;
44139;SDS011;29803;51.048;4.686;2023-08-20T01:36:07;8.80;;;3.15;;
44139;SDS011;29803;51.048;4.686;2023-08-20T01:38:39;12.90;;;3.15;;
44139;SDS011;29803;51.048;4.686;2023-08-20T01:41:10;14.23;;;3.92;;
44139;SDS011;29803;51.048;4.686;2023-08-20T01:43:41;9.68;;;2.83;;
44139;SDS011;29803;51.048;4.686;2023-08-20T01:46:11;12.80;;;3.47;;
44139;SDS011;29803;51.048;4.686;2023-08-20T01:48:42;8.32;;;2.83;;
44139;SDS011;29803;51.048;4.686;2023-08-20T01:51:14;12.68;;;2.97;;
44139;SDS011;29803;51.048;4.686;2023-08-20T01:53:45;7.35;;;2.80;;
44139;SDS011;29803;51.048;4.686;2023-08-20T01:56:15;14.10;;;3.42;;
44139;SDS011;29803;51.048;4.686;2023-08-20T01:58:46;17.23;;;3.30;;
44139;SDS011;29803;51.048;4.686;2023-08-20T02:01:17;8.50;;;3.40;;
44139;SDS011;29803;51.048;4.686;2023-08-20T02:03:47;9.77;;;3.35;;
44139;SDS011;29803;51.048;4.686;2023-08-20T02:06:18;7.25;;;3.70;;
44139;SDS011;29803;51.048;4.686;2023-08-20T02:08:50;11.90;;;3.15;;
44139;SDS011;29803;51.048;4.686;2023-08-20T02:11:21;12.93;;;4.13;;
44139;SDS011;29803;51.048;4.686;2023-08-20T02:13:51;9.15;;;3.10;;
44139;SDS011;29803;51.048;4.686;2023-08-20T02:16:22;9.00;;;3.45;;
44139;SDS011;29803;51.048;4.686;2023-08-20T02:18:53;13.25;;;3.50;;
44139;SDS011;29803;51.048;4.686;2023-08-20T02:21:23;14.18;;;4.40;;
44139;SDS011;29803;51.048;4.686;2023-08-20T02:23:54;17.85;;;4.00;;
44139;SDS011;29803;51.048;4.686;2023-08-20T02:26:24;11.82;;;3.75;;
44139;SDS011;29803;51.048;4.686;2023-08-20T02:28:55;18.73;;;4.13;;
44139;SDS011;29803;51.048;4.686;2023-08-20T02:31:27;12.93;;;3.78;;
44139;SDS011;29803;51.048;4.686;2023-08-20T02:33:57;14.55;;;3.33;;
44139;SDS011;29803;51.048;4.686;2023-08-20T02:36:28;11.13;;;3.50;;
44139;SDS011;29803;51.048;4.686;2023-08-20T02:38:58;9.30;;;4.07;;
44139;SDS011;29803;51.048;4.686;2023-08-20T02:41:29;15.68;;;4.10;;
44139;SDS011;29803;51.048;4.686;2023-08-20T02:43:59;10.43;;;3.88;;
44139;SDS011;29803;51.048;4.686;2023-08-20T02:46:30;8.38;;;3.15;;
44139;SDS011;29803;51.048;4.686;2023-08-20T02:49:00;16.35;;;4.00;;
44139;SDS011;29803;51.048;4.686;2023-08-20T02:51:31;10.63;;;3.58;;
44139;SDS011;29803;51.048;4.686;2023-08-20T02:54:01;11.02;;;3.65;;
44139;SDS011;29803;51.048;4.686;2023-08-20T02:56:32;10.77;;;3.38;;
44139;SDS011;29803;51.048;4.686;2023-08-20T02:59:03;8.35;;;3.92;;
44139;SDS011;29803;51.048;4.686;2023-08-20T03:01:34;11.32;;;3.58;;
44139;SDS011;29803;51.048;4.686;2023-08-20T03:04:05;11.15;;;4.22;;
44139;SDS011;29803;51.048;4.686;2023-08-20T03:06:35;7.78;;;3.42;;
44139;SDS011;29803;51.048;4.686;2023-08-20T03:09:06;13.52;;;3.83;;
44139;SDS011;29803;51.048;4.686;2023-08-20T03:11:36;17.08;;;3.75;;
44139;SDS011;29803;51.048;4.686;2023-08-20T03:14:07;9.13;;;3.38;;
44139;SDS011;29803;51.048;4.686;2023-08-20T03:16:38;12.10;;;3.65;;
44139;SDS011;29803;51.048;4.686;2023-08-20T03:19:08;15.43;;;3.95;;
44139;SDS011;29803;51.048;4.686;2023-08-20T03:21:39;12.95;;;3.60;;
44139;SDS011;29803;51.048;4.686;2023-08-20T03:24:09;10.25;;;3.10;;
44139;SDS011;29803;51.048;4.686;2023-08-20T03:26:40;8.43;;;3.28;;
44139;SDS011;29803;51.048;4.686;2023-08-20T03:29:11;6.68;;;3.03;;
44139;SDS011;29803;51.048;4.686;2023-08-20T03:31:42;8.25;;;3.42;;
44139;SDS011;29803;51.048;4.686;2023-08-20T03:34:12;7.70;;;3.05;;
44139;SDS011;29803;51.048;4.686;2023-08-20T03:36:43;7.60;;;3.13;;
44139;SDS011;29803;51.048;4.686;2023-08-20T03:39:13;7.88;;;3.47;;
44139;SDS011;29803;51.048;4.686;2023-08-20T03:41:44;9.10;;;2.65;;
44139;SDS011;29803;51.048;4.686;2023-08-20T03:44:14;14.63;;;3.80;;
44139;SDS011;29803;51.048;4.686;2023-08-20T03:46:45;77.63;;;4.00;;
44139;SDS011;29803;51.048;4.686;2023-08-20T03:49:15;9.57;;;2.28;;
44139;SDS011;29803;51.048;4.686;2023-08-20T03:51:46;20.33;;;3.70;;
44139;SDS011;29803;51.048;4.686;2023-08-20T03:54:17;4.38;;;2.40;;
44139;SDS011;29803;51.048;4.686;2023-08-20T03:56:47;7.55;;;2.90;;
44139;SDS011;29803;51.048;4.686;2023-08-20T03:59:18;5.45;;;2.58;;
44139;SDS011;29803;51.048;4.686;2023-08-20T04:01:48;7.57;;;2.42;;
44139;SDS011;29803;51.048;4.686;2023-08-20T04:04:19;7.10;;;2.35;;
44139;SDS011;29803;51.048;4.686;2023-08-20T04:06:51;8.30;;;3.30;;
44139;SDS011;29803;51.048;4.686;2023-08-20T04:09:21;4.07;;;2.30;;
44139;SDS011;29803;51.048;4.686;2023-08-20T04:11:52;6.38;;;2.00;;
44139;SDS011;29803;51.048;4.686;2023-08-20T04:14:22;4.82;;;2.13;;
44139;SDS011;29803;51.048;4.686;2023-08-20T04:16:53;7.72;;;3.47;;
44139;SDS011;29803;51.048;4.686;2023-08-20T04:19:23;5.05;;;2.50;;
44139;SDS011;29803;51.048;4.686;2023-08-20T04:21:54;7.47;;;2.58;;
44139;SDS011;29803;51.048;4.686;2023-08-20T04:24:24;9.10;;;2.70;;
44139;SDS011;29803;51.048;4.686;2023-08-20T04:26:55;4.40;;;2.08;;
44139;SDS011;29803;51.048;4.686;2023-08-20T04:29:25;10.20;;;2.45;;
44139;SDS011;29803;51.048;4.686;2023-08-20T04:31:57;6.18;;;3.20;;
44139;SDS011;29803;51.048;4.686;2023-08-20T04:34:28;4.90;;;2.03;;
44139;SDS011;29803;51.048;4.686;2023-08-20T04:36:58;6.88;;;2.88;;
44139;SDS011;29803;51.048;4.686;2023-08-20T04:39:29;9.43;;;2.75;;
44139;SDS011;29803;51.048;4.686;2023-08-20T04:41:59;10.25;;;3.28;;
44139;SDS011;29803;51.048;4.686;2023-08-20T04:44:30;8.43;;;3.40;;
44139;SDS011;29803;51.048;4.686;2023-08-20T04:47:00;7.05;;;3.17;;
44139;SDS011;29803;51.048;4.686;2023-08-20T04:49:31;7.35;;;3.25;;
44139;SDS011;29803;51.048;4.686;2023-08-20T04:52:02;6.25;;;1.88;;
44139;SDS011;29803;51.048;4.686;2023-08-20T04:54:32;3.83;;;1.95;;
44139;SDS011;29803;51.048;4.686;2023-08-20T04:57:03;7.32;;;2.60;;
44139;SDS011;29803;51.048;4.686;2023-08-20T04:59:33;10.88;;;3.65;;
44139;SDS011;29803;51.048;4.686;2023-08-20T05:02:04;8.18;;;3.30;;
44139;SDS011;29803;51.048;4.686;2023-08-20T05:04:34;9.30;;;3.50;;
44139;SDS011;29803;51.048;4.686;2023-08-20T05:07:05;9.18;;;3.33;;
44139;SDS011;29803;51.048;4.686;2023-08-20T05:09:35;7.32;;;2.50;;
44139;SDS011;29803;51.048;4.686;2023-08-20T05:12:06;3.92;;;2.35;;
44139;SDS011;29803;51.048;4.686;2023-08-20T05:14:37;6.38;;;2.80;;
44139;SDS011;29803;51.048;4.686;2023-08-20T05:17:08;11.32;;;3.50;;
44139;SDS011;29803;51.048;4.686;2023-08-20T05:19:38;12.20;;;2.97;;
44139;SDS011;29803;51.048;4.686;2023-08-20T05:22:09;12.52;;;3.72;;
44139;SDS011;29803;51.048;4.686;2023-08-20T05:24:41;10.77;;;3.13;;
44139;SDS011;29803;51.048;4.686;2023-08-20T05:27:12;10.77;;;3.60;;
44139;SDS011;29803;51.048;4.686;2023-08-20T05:29:45;14.30;;;3.55;;
44139;SDS011;29803;51.048;4.686;2023-08-20T05:32:15;6.53;;;2.75;;
44139;SDS011;29803;51.048;4.686;2023-08-20T05:34:46;15.13;;;2.08;;
44139;SDS011;29803;51.048;4.686;2023-08-20T05:37:16;4.18;;;1.80;;
44139;SDS011;29803;51.048;4.686;2023-08-20T05:39:47;4.05;;;1.98;;
44139;SDS011;29803;51.048;4.686;2023-08-20T05:42:17;7.10;;;2.58;;
44139;SDS011;29803;51.048;4.686;2023-08-20T05:44:48;13.35;;;4.63;;
44139;SDS011;29803;51.048;4.686;2023-08-20T05:47:18;7.05;;;4.00;;
44139;SDS011;29803;51.048;4.686;2023-08-20T05:49:49;8.02;;;4.32;;
44139;SDS011;29803;51.048;4.686;2023-08-20T05:52:19;10.98;;;5.55;;
44139;SDS011;29803;51.048;4.686;2023-08-20T05:54:50;14.50;;;5.50;;
44139;SDS011;29803;51.048;4.686;2023-08-20T05:57:20;11.05;;;4.80;;
44139;SDS011;29803;51.048;4.686;2023-08-20T05:59:51;15.05;;;5.63;;
44139;SDS011;29803;51.048;4.686;2023-08-20T06:02:21;12.02;;;4.50;;
44139;SDS011;29803;51.048;4.686;2023-08-20T06:04:52;11.63;;;4.32;;
44139;SDS011;29803;51.048;4.686;2023-08-20T06:07:22;9.07;;;4.03;;
44139;SDS011;29803;51.048;4.686;2023-08-20T06:09:53;9.15;;;3.28;;
44139;SDS011;29803;51.048;4.686;2023-08-20T06:12:23;13.70;;;4.18;;
44139;SDS011;29803;51.048;4.686;2023-08-20T06:14:54;14.07;;;3.92;;
44139;SDS011;29803;51.048;4.686;2023-08-20T06:17:24;10.90;;;4.10;;
44139;SDS011;29803;51.048;4.686;2023-08-20T06:19:55;7.75;;;3.08;;
44139;SDS011;29803;51.048;4.686;2023-08-20T06:22:25;9.57;;;3.05;;
44139;SDS011;29803;51.048;4.686;2023-08-20T06:24:56;11.23;;;3.72;;
44139;SDS011;29803;51.048;4.686;2023-08-20T06:27:28;9.23;;;3.55;;
44139;SDS011;29803;51.048;4.686;2023-08-20T06:29:58;13.73;;;3.97;;
44139;SDS011;29803;51.048;4.686;2023-08-20T06:32:29;10.63;;;3.20;;
44139;SDS011;29803;51.048;4.686;2023-08-20T06:35:00;11.98;;;3.65;;
44139;SDS011;29803;51.048;4.686;2023-08-20T06:37:30;10.48;;;3.15;;
44139;SDS011;29803;51.048;4.686;2023-08-20T06:40:01;7.13;;;2.88;;
44139;SDS011;29803;51.048;4.686;2023-08-20T06:42:31;12.32;;;2.90;;
44139;SDS011;29803;51.048;4.686;2023-08-20T06:45:02;11.18;;;3.42;;
44139;SDS011;29803;51.048;4.686;2023-08-20T06:47:32;12.43;;;3.50;;
44139;SDS011;29803;51.048;4.686;2023-08-20T06:50:04;9.38;;;2.90;;
44139;SDS011;29803;51.048;4.686;2023-08-20T06:52:34;15.68;;;3.08;;
44139;SDS011;29803;51.048;4.686;2023-08-20T06:55:05;14.95;;;3.35;;
44139;SDS011;29803;51.048;4.686;2023-08-20T06:57:36;13.82;;;2.80;;
44139;SDS011;29803;51.048;4.686;2023-08-20T07:00:06;13.82;;;2.50;;
44139;SDS011;29803;51.048;4.686;2023-08-20T07:02:37;13.80;;;2.88;;
44139;SDS011;29803;51.048;4.686;2023-08-20T07:05:08;13.50;;;3.03;;
44139;SDS011;29803;51.048;4.686;2023-08-20T07:07:39;6.65;;;2.67;;
44139;SDS011;29803;51.048;4.686;2023-08-20T07:10:09;7.97;;;2.40;;
44139;SDS011;29803;51.048;4.686;2023-08-20T07:12:40;8.75;;;2.70;;
44139;SDS011;29803;51.048;4.686;2023-08-20T07:15:11;9.68;;;2.13;;
44139;SDS011;29803;51.048;4.686;2023-08-20T07:17:41;12.00;;;2.47;;
44139;SDS011;29803;51.048;4.686;2023-08-20T07:20:12;10.75;;;2.42;;
44139;SDS011;29803;51.048;4.686;2023-08-20T07:22:43;7.93;;;2.15;;
44139;SDS011;29803;51.048;4.686;2023-08-20T07:25:13;11.80;;;2.80;;
44139;SDS011;29803;51.048;4.686;2023-08-20T07:27:44;10.15;;;2.60;;
44139;SDS011;29803;51.048;4.686;2023-08-20T07:30:14;9.50;;;2.63;;
44139;SDS011;29803;51.048;4.686;2023-08-20T07:32:45;8.98;;;2.53;;
44139;SDS011;29803;51.048;4.686;2023-08-20T07:35:15;8.45;;;2.40;;
44139;SDS011;29803;51.048;4.686;2023-08-20T07:37:46;8.73;;;1.95;;
44139;SDS011;29803;51.048;4.686;2023-08-20T07:40:17;5.68;;;1.65;;
44139;SDS011;29803;51.048;4.686;2023-08-20T07:42:47;8.15;;;2.05;;
44139;SDS011;29803;51.048;4.686;2023-08-20T07:45:20;9.27;;;2.28;;
44139;SDS011;29803;51.048;4.686;2023-08-20T07:47:50;10.43;;;2.63;;
44139;SDS011;29803;51.048;4.686;2023-08-20T07:50:21;7.18;;;1.90;;
44139;SDS011;29803;51.048;4.686;2023-08-20T07:52:51;9.80;;;2.00;;
44139;SDS011;29803;51.048;4.686;2023-08-20T07:55:22;11.18;;;2.28;;
44139;SDS011;29803;51.048;4.686;2023-08-20T07:57:52;11.10;;;2.00;;
44139;SDS011;29803;51.048;4.686;2023-08-20T08:00:23;6.15;;;2.08;;
44139;SDS011;29803;51.048;4.686;2023-08-20T08:02:53;9.57;;;3.03;;
44139;SDS011;29803;51.048;4.686;2023-08-20T08:05:24;9.90;;;2.25;;
44139;SDS011;29803;51.048;4.686;2023-08-20T08:07:54;8.70;;;2.15;;
44139;SDS011;29803;51.048;4.686;2023-08-20T08:10:25;7.53;;;1.70;;
44139;SDS011;29803;51.048;4.686;2023-08-20T08:12:55;7.47;;;2.08;;
44139;SDS011;29803;51.048;4.686;2023-08-20T08:15:26;6.53;;;1.67;;
44139;SDS011;29803;51.048;4.686;2023-08-20T08:17:56;9.85;;;1.60;;
44139;SDS011;29803;51.048;4.686;2023-08-20T08:20:27;6.93;;;2.15;;
44139;SDS011;29803;51.048;4.686;2023-08-20T08:22:57;7.22;;;1.80;;
44139;SDS011;29803;51.048;4.686;2023-08-20T08:25:28;5.47;;;1.50;;
44139;SDS011;29803;51.048;4.686;2023-08-20T08:27:59;5.57;;;1.63;;
44139;SDS011;29803;51.048;4.686;2023-08-20T08:30:29;4.28;;;1.70;;
44139;SDS011;29803;51.048;4.686;2023-08-20T08:33:00;4.50;;;1.52;;
44139;SDS011;29803;51.048;4.686;2023-08-20T08:35:30;4.32;;;1.48;;
44139;SDS011;29803;51.048;4.686;2023-08-20T08:38:01;8.45;;;1.60;;
44139;SDS011;29803;51.048;4.686;2023-08-20T08:40:32;4.05;;;1.23;;
44139;SDS011;29803;51.048;4.686;2023-08-20T08:43:03;6.20;;;1.83;;
44139;SDS011;29803;51.048;4.686;2023-08-20T08:45:34;8.05;;;1.92;;
44139;SDS011;29803;51.048;4.686;2023-08-20T08:48:05;10.00;;;1.58;;
44139;SDS011;29803;51.048;4.686;2023-08-20T08:50:36;9.27;;;1.65;;
44139;SDS011;29803;51.048;4.686;2023-08-20T08:53:07;3.30;;;1.25;;
44139;SDS011;29803;51.048;4.686;2023-08-20T08:55:38;5.10;;;1.90;;
44139;SDS011;29803;51.048;4.686;2023-08-20T08:58:09;5.78;;;1.92;;
44139;SDS011;29803;51.048;4.686;2023-08-20T09:00:39;3.40;;;1.30;;
44139;SDS011;29803;51.048;4.686;2023-08-20T09:03:10;4.53;;;1.02;;
44139;SDS011;29803;51.048;4.686;2023-08-20T09:08:31;9.52;;;1.70;;
44139;SDS011;29803;51.048;4.686;2023-08-20T09:11:02;3.35;;;0.88;;
44139;SDS011;29803;51.048;4.686;2023-08-20T09:13:33;4.82;;;1.42;;
44139;SDS011;29803;51.048;4.686;2023-08-20T09:16:06;4.32;;;1.25;;
44139;SDS011;29803;51.048;4.686;2023-08-20T09:18:38;6.00;;;1.13;;
44139;SDS011;29803;51.048;4.686;2023-08-20T09:21:11;3.50;;;0.80;;
44139;SDS011;29803;51.048;4.686;2023-08-20T09:23:45;2.83;;;1.00;;
44139;SDS011;29803;51.048;4.686;2023-08-20T09:26:17;3.58;;;0.98;;
44139;SDS011;29803;51.048;4.686;2023-08-20T09:28:47;4.03;;;0.88;;
44139;SDS011;29803;51.048;4.686;2023-08-20T09:31:18;2.85;;;1.00;;
44139;SDS011;29803;51.048;4.686;2023-08-20T09:33:50;2.65;;;0.80;;
44139;SDS011;29803;51.048;4.686;2023-08-20T09:36:34;1.73;;;0.60;;
44139;SDS011;29803;51.048;4.686;2023-08-20T09:39:05;3.28;;;0.88;;
44139;SDS011;29803;51.048;4.686;2023-08-20T09:41:36;2.08;;;0.52;;
44139;SDS011;29803;51.048;4.686;2023-08-20T09:44:06;1.33;;;0.40;;
44139;SDS011;29803;51.048;4.686;2023-08-20T09:46:38;0.73;;;0.40;;
44139;SDS011;29803;51.048;4.686;2023-08-20T09:49:12;1.50;;;0.50;;
44139;SDS011;29803;51.048;4.686;2023-08-20T09:51:48;2.92;;;0.75;;
44139;SDS011;29803;51.048;4.686;2023-08-20T09:57:23;3.85;;;1.13;;
44139;SDS011;29803;51.048;4.686;2023-08-20T10:00:03;0.88;;;0.47;;
44139;SDS011;29803;51.048;4.686;2023-08-20T10:02:41;2.15;;;0.63;;
44139;SDS011;29803;51.048;4.686;2023-08-20T10:05:12;2.53;;;0.70;;
44139;SDS011;29803;51.048;4.686;2023-08-20T10:07:44;2.55;;;0.47;;
44139;SDS011;29803;51.048;4.686;2023-08-20T10:10:16;3.55;;;0.95;;
44139;SDS011;29803;51.048;4.686;2023-08-20T10:12:47;2.50;;;0.70;;
44139;SDS011;29803;51.048;4.686;2023-08-20T10:15:18;2.63;;;0.95;;
44139;SDS011;29803;51.048;4.686;2023-08-20T10:17:49;2.75;;;0.70;;
44139;SDS011;29803;51.048;4.686;2023-08-20T10:20:19;5.07;;;1.00;;
44139;SDS011;29803;51.048;4.686;2023-08-20T10:22:50;3.40;;;0.90;;
44139;SDS011;29803;51.048;4.686;2023-08-20T10:25:22;1.65;;;0.90;;
44139;SDS011;29803;51.048;4.686;2023-08-20T10:27:53;4.13;;;1.02;;
44139;SDS011;29803;51.048;4.686;2023-08-20T10:30:25;6.13;;;1.42;;
44139;SDS011;29803;51.048;4.686;2023-08-20T10:32:56;4.45;;;1.00;;
44139;SDS011;29803;51.048;4.686;2023-08-20T10:38:12;4.90;;;1.15;;
44139;SDS011;29803;51.048;4.686;2023-08-20T10:40:47;2.85;;;0.90;;
44139;SDS011;29803;51.048;4.686;2023-08-20T10:43:37;1.80;;;0.75;;
44139;SDS011;29803;51.048;4.686;2023-08-20T10:46:23;5.07;;;0.90;;
44139;SDS011;29803;51.048;4.686;2023-08-20T10:51:27;2.88;;;0.68;;
44139;SDS011;29803;51.048;4.686;2023-08-20T10:59:26;4.13;;;0.70;;
44139;SDS011;29803;51.048;4.686;2023-08-20T11:01:58;2.45;;;0.80;;
44139;SDS011;29803;51.048;4.686;2023-08-20T11:04:29;3.67;;;0.80;;
44139;SDS011;29803;51.048;4.686;2023-08-20T11:07:02;3.17;;;0.73;;
44139;SDS011;29803;51.048;4.686;2023-08-20T11:09:34;2.75;;;1.02;;
44139;SDS011;29803;51.048;4.686;2023-08-20T11:12:05;4.15;;;1.15;;
44139;SDS011;29803;51.048;4.686;2023-08-20T11:14:36;5.50;;;1.13;;
44139;SDS011;29803;51.048;4.686;2023-08-20T11:17:07;2.17;;;0.90;;
44139;SDS011;29803;51.048;4.686;2023-08-20T11:19:38;2.22;;;0.88;;
44139;SDS011;29803;51.048;4.686;2023-08-20T11:22:08;2.35;;;0.75;;
44139;SDS011;29803;51.048;4.686;2023-08-20T11:24:41;3.67;;;0.95;;
44139;SDS011;29803;51.048;4.686;2023-08-20T11:27:12;2.97;;;0.93;;
44139;SDS011;29803;51.048;4.686;2023-08-20T11:29:43;2.88;;;0.80;;
44139;SDS011;29803;51.048;4.686;2023-08-20T11:32:14;2.08;;;0.73;;
44139;SDS011;29803;51.048;4.686;2023-08-20T11:34:45;2.90;;;1.13;;
44139;SDS011;29803;51.048;4.686;2023-08-20T11:37:18;3.90;;;0.90;;
44139;SDS011;29803;51.048;4.686;2023-08-20T11:39:51;3.72;;;1.05;;
44139;SDS011;29803;51.048;4.686;2023-08-20T11:42:22;7.15;;;1.10;;
44139;SDS011;29803;51.048;4.686;2023-08-20T11:44:55;7.03;;;1.13;;
44139;SDS011;29803;51.048;4.686;2023-08-20T11:47:26;2.30;;;1.00;;
44139;SDS011;29803;51.048;4.686;2023-08-20T11:52:45;5.07;;;0.82;;
44139;SDS011;29803;51.048;4.686;2023-08-20T11:55:21;3.45;;;0.98;;
44139;SDS011;29803;51.048;4.686;2023-08-20T11:57:52;4.97;;;1.02;;
44139;SDS011;29803;51.048;4.686;2023-08-20T12:00:25;2.22;;;0.80;;
44139;SDS011;29803;51.048;4.686;2023-08-20T12:02:57;4.55;;;1.13;;
44139;SDS011;29803;51.048;4.686;2023-08-20T12:05:28;2.88;;;0.90;;
44139;SDS011;29803;51.048;4.686;2023-08-20T12:08:00;5.10;;;1.20;;
44139;SDS011;29803;51.048;4.686;2023-08-20T12:10:32;5.13;;;0.90;;
44139;SDS011;29803;51.048;4.686;2023-08-20T12:13:04;3.03;;;1.38;;
44139;SDS011;29803;51.048;4.686;2023-08-20T12:15:35;3.78;;;1.27;;
44139;SDS011;29803;51.048;4.686;2023-08-20T12:18:05;4.47;;;1.02;;
44139;SDS011;29803;51.048;4.686;2023-08-20T12:20:38;3.63;;;1.00;;
44139;SDS011;29803;51.048;4.686;2023-08-20T12:23:09;4.63;;;1.15;;
44139;SDS011;29803;51.048;4.686;2023-08-20T12:25:39;2.20;;;0.90;;
44139;SDS011;29803;51.048;4.686;2023-08-20T12:28:10;2.75;;;0.88;;
44139;SDS011;29803;51.048;4.686;2023-08-20T12:30:40;3.20;;;0.85;;
44139;SDS011;29803;51.048;4.686;2023-08-20T12:33:11;4.68;;;1.35;;
44139;SDS011;29803;51.048;4.686;2023-08-20T12:35:41;2.92;;;1.08;;
44139;SDS011;29803;51.048;4.686;2023-08-20T12:38:12;3.33;;;1.05;;
44139;SDS011;29803;51.048;4.686;2023-08-20T12:40:42;4.07;;;0.80;;
44139;SDS011;29803;51.048;4.686;2023-08-20T12:43:13;7.35;;;1.25;;
44139;SDS011;29803;51.048;4.686;2023-08-20T12:45:43;4.75;;;1.20;;
44139;SDS011;29803;51.048;4.686;2023-08-20T12:48:14;6.72;;;1.17;;
44139;SDS011;29803;51.048;4.686;2023-08-20T12:50:44;4.13;;;1.20;;
44139;SDS011;29803;51.048;4.686;2023-08-20T12:53:15;5.50;;;1.13;;
44139;SDS011;29803;51.048;4.686;2023-08-20T12:55:45;1.67;;;0.70;;
44139;SDS011;29803;51.048;4.686;2023-08-20T12:58:16;2.63;;;1.02;;
44139;SDS011;29803;51.048;4.686;2023-08-20T13:00:46;4.63;;;1.10;;
44139;SDS011;29803;51.048;4.686;2023-08-20T13:03:17;2.17;;;1.27;;
44139;SDS011;29803;51.048;4.686;2023-08-20T13:05:48;4.55;;;0.90;;
44139;SDS011;29803;51.048;4.686;2023-08-20T13:08:19;4.55;;;1.10;;
44139;SDS011;29803;51.048;4.686;2023-08-20T13:10:52;6.90;;;1.25;;
44139;SDS011;29803;51.048;4.686;2023-08-20T13:13:25;6.18;;;1.10;;
44139;SDS011;29803;51.048;4.686;2023-08-20T13:15:56;4.70;;;1.40;;
44139;SDS011;29803;51.048;4.686;2023-08-20T13:18:26;4.82;;;0.98;;
44139;SDS011;29803;51.048;4.686;2023-08-20T13:20:57;7.05;;;1.42;;
44139;SDS011;29803;51.048;4.686;2023-08-20T13:23:28;2.80;;;0.90;;
44139;SDS011;29803;51.048;4.686;2023-08-20T13:25:58;9.52;;;1.20;;
44139;SDS011;29803;51.048;4.686;2023-08-20T13:28:29;7.60;;;1.23;;
44139;SDS011;29803;51.048;4.686;2023-08-20T13:30:59;3.15;;;0.80;;
44139;SDS011;29803;51.048;4.686;2023-08-20T13:33:30;2.33;;;0.80;;
44139;SDS011;29803;51.048;4.686;2023-08-20T13:36:00;3.00;;;0.85;;
44139;SDS011;29803;51.048;4.686;2023-08-20T13:38:31;4.78;;;1.50;;
44139;SDS011;29803;51.048;4.686;2023-08-20T13:41:02;1.95;;;0.80;;
44139;SDS011;29803;51.048;4.686;2023-08-20T13:43:33;3.75;;;1.25;;
44139;SDS011;29803;51.048;4.686;2023-08-20T13:46:03;4.90;;;1.00;;
44139;SDS011;29803;51.048;4.686;2023-08-20T13:48:33;4.47;;;1.23;;
44139;SDS011;29803;51.048;4.686;2023-08-20T13:51:04;6.72;;;1.30;;
44139;SDS011;29803;51.048;4.686;2023-08-20T13:53:35;2.08;;;0.73;;
44139;SDS011;29803;51.048;4.686;2023-08-20T13:56:05;4.82;;;0.85;;
44139;SDS011;29803;51.048;4.686;2023-08-20T13:58:36;2.88;;;0.90;;
44139;SDS011;29803;51.048;4.686;2023-08-20T14:01:06;6.68;;;1.02;;
44139;SDS011;29803;51.048;4.686;2023-08-20T14:03:37;4.90;;;1.33;;
44139;SDS011;29803;51.048;4.686;2023-08-20T14:06:07;3.70;;;1.02;;
44139;SDS011;29803;51.048;4.686;2023-08-20T14:08:38;6.53;;;1.30;;
44139;SDS011;29803;51.048;4.686;2023-08-20T14:11:09;4.50;;;1.50;;
44139;SDS011;29803;51.048;4.686;2023-08-20T14:13:39;5.03;;;1.25;;
44139;SDS011;29803;51.048;4.686;2023-08-20T14:16:12;4.18;;;1.20;;
44139;SDS011;29803;51.048;4.686;2023-08-20T14:18:43;4.30;;;1.00;;
44139;SDS011;29803;51.048;4.686;2023-08-20T14:21:13;5.43;;;1.30;;
44139;SDS011;29803;51.048;4.686;2023-08-20T14:23:44;3.78;;;1.00;;
44139;SDS011;29803;51.048;4.686;2023-08-20T14:26:14;2.72;;;0.80;;
44139;SDS011;29803;51.048;4.686;2023-08-20T14:28:45;4.28;;;1.20;;
44139;SDS011;29803;51.048;4.686;2023-08-20T14:31:16;2.75;;;0.73;;
44139;SDS011;29803;51.048;4.686;2023-08-20T14:33:48;4.78;;;1.30;;
44139;SDS011;29803;51.048;4.686;2023-08-20T14:36:19;3.55;;;1.13;;
44139;SDS011;29803;51.048;4.686;2023-08-20T14:38:49;4.20;;;1.10;;
44139;SDS011;29803;51.048;4.686;2023-08-20T14:41:20;4.75;;;1.27;;
44139;SDS011;29803;51.048;4.686;2023-08-20T14:43:50;3.35;;;1.27;;
44139;SDS011;29803;51.048;4.686;2023-08-20T14:46:21;6.25;;;1.25;;
44139;SDS011;29803;51.048;4.686;2023-08-20T14:48:51;3.75;;;1.00;;
44139;SDS011;29803;51.048;4.686;2023-08-20T14:51:24;4.88;;;1.27;;
44139;SDS011;29803;51.048;4.686;2023-08-20T14:53:55;6.88;;;1.20;;
44139;SDS011;29803;51.048;4.686;2023-08-20T14:56:25;3.28;;;1.00;;
44139;SDS011;29803;51.048;4.686;2023-08-20T14:58:56;4.05;;;1.17;;
44139;SDS011;29803;51.048;4.686;2023-08-20T15:01:26;3.13;;;1.10;;
44139;SDS011;29803;51.048;4.686;2023-08-20T15:03:57;3.83;;;1.17;;
44139;SDS011;29803;51.048;4.686;2023-08-20T15:06:27;4.90;;;1.52;;
44139;SDS011;29803;51.048;4.686;2023-08-20T15:08:58;6.10;;;1.48;;
44139;SDS011;29803;51.048;4.686;2023-08-20T15:11:28;4.75;;;0.98;;
44139;SDS011;29803;51.048;4.686;2023-08-20T15:13:59;4.22;;;1.10;;
44139;SDS011;29803;51.048;4.686;2023-08-20T15:16:30;5.00;;;1.20;;
44139;SDS011;29803;51.048;4.686;2023-08-20T15:19:00;5.53;;;1.00;;
44139;SDS011;29803;51.048;4.686;2023-08-20T15:21:31;2.72;;;0.80;;
44139;SDS011;29803;51.048;4.686;2023-08-20T15:24:02;7.55;;;2.05;;
44139;SDS011;29803;51.048;4.686;2023-08-20T15:26:33;2.72;;;1.10;;
44139;SDS011;29803;51.048;4.686;2023-08-20T15:29:04;3.60;;;1.20;;
44139;SDS011;29803;51.048;4.686;2023-08-20T15:31:35;2.92;;;1.20;;
44139;SDS011;29803;51.048;4.686;2023-08-20T15:34:05;3.90;;;1.25;;
44139;SDS011;29803;51.048;4.686;2023-08-20T15:36:35;3.00;;;0.90;;
44139;SDS011;29803;51.048;4.686;2023-08-20T15:39:06;6.18;;;1.23;;
44139;SDS011;29803;51.048;4.686;2023-08-20T15:41:36;3.25;;;1.38;;